createdAt,value
2024-03-02T00:01:21.682Z,19.13
2024-03-02T00:03:49.642Z,19.12
2024-03-02T00:06:17.879Z,19.12
2024-03-02T00:08:45.723Z,19.12
2024-03-02T00:11:15.422Z,19.11
2024-03-02T00:13:43.338Z,19.11
2024-03-02T00:16:12.250Z,19.11
2024-03-02T00:18:41.546Z,19.11
2024-03-02T00:21:11.197Z,19.11
2024-03-02T00:23:39.832Z,19.11
2024-03-02T00:26:07.790Z,19.11
2024-03-02T00:28:36.616Z,19.11
2024-03-02T00:31:06.090Z,19.10
2024-03-02T00:33:34.988Z,19.11
2024-03-02T00:36:05.330Z,19.10
2024-03-02T00:38:33.226Z,19.10
2024-03-02T00:41:01.258Z,19.10
2024-03-02T00:43:47.694Z,19.11
2024-03-02T00:46:18.373Z,19.10
2024-03-02T00:48:50.946Z,19.09
2024-03-02T00:51:20.298Z,19.10
2024-03-02T00:53:48.592Z,19.09
2024-03-02T00:56:16.416Z,19.10
2024-03-02T00:58:44.569Z,19.09
2024-03-02T01:01:12.496Z,19.09
2024-03-02T01:03:40.481Z,19.09
2024-03-02T01:06:09.324Z,19.08
2024-03-02T01:08:38.516Z,19.08
2024-03-02T01:11:06.686Z,19.09
2024-03-02T01:13:34.660Z,19.09
2024-03-02T01:16:02.671Z,19.09
2024-03-02T01:18:30.589Z,19.09
2024-03-02T01:20:58.523Z,19.09
2024-03-02T01:23:26.357Z,19.09
2024-03-02T01:25:56.064Z,19.09
2024-03-02T01:28:23.901Z,19.08
2024-03-02T01:30:51.838Z,19.08
2024-03-02T01:33:19.925Z,19.09
2024-03-02T01:35:48.127Z,19.09
2024-03-02T01:38:15.991Z,19.09
2024-03-02T01:40:45.519Z,19.09
2024-03-02T01:43:14.824Z,19.09
2024-03-02T01:45:42.735Z,19.08
2024-03-02T01:48:10.595Z,19.08
2024-03-02T01:50:38.470Z,19.07
2024-03-02T01:53:06.330Z,19.08
2024-03-02T01:55:35.767Z,19.08
2024-03-02T01:58:03.731Z,19.08
2024-03-02T02:00:33.499Z,19.06
2024-03-02T02:03:01.385Z,19.07
2024-03-02T02:05:29.195Z,19.07
2024-03-02T02:07:59.328Z,19.07
2024-03-02T02:10:27.216Z,19.06
2024-03-02T02:12:55.213Z,19.07
2024-03-02T02:15:27.109Z,19.06
2024-03-02T02:17:56.626Z,19.04
2024-03-02T02:20:24.598Z,19.05
2024-03-02T02:23:00.472Z,19.06
2024-03-02T02:25:28.525Z,19.05
2024-03-02T02:27:56.624Z,19.03
2024-03-02T02:30:26.002Z,19.05
2024-03-02T02:32:53.932Z,19.05
2024-03-02T02:35:21.811Z,19.05
2024-03-02T02:37:49.741Z,19.04
2024-03-02T02:40:20.041Z,19.04
2024-03-02T02:42:48.474Z,19.03
2024-03-02T02:45:16.812Z,19.02
2024-03-02T02:47:45.038Z,19.04
2024-03-02T02:50:13.082Z,19.02
2024-03-02T02:52:42.372Z,19.03
2024-03-02T02:55:11.144Z,19.02
2024-03-02T02:57:41.571Z,19.03
2024-03-02T03:00:16.108Z,19.02
2024-03-02T03:02:44.745Z,19.01
2024-03-02T03:05:13.189Z,19.02
2024-03-02T03:07:41.770Z,19.02
2024-03-02T03:10:09.895Z,19.02
2024-03-02T03:12:38.035Z,19.02
2024-03-02T03:15:09.624Z,19.02
2024-03-02T03:17:38.375Z,19.01
2024-03-02T03:20:10.754Z,19.02
2024-03-02T03:22:38.796Z,19.01
2024-03-02T03:25:08.077Z,19.01
2024-03-02T03:27:35.948Z,19.00
2024-03-02T03:30:03.990Z,19.00
2024-03-02T03:32:33.149Z,19.00
2024-03-02T03:35:00.995Z,19.00
2024-03-02T03:37:33.822Z,18.99
2024-03-02T03:40:02.233Z,18.99
2024-03-02T03:42:30.162Z,18.99
2024-03-02T03:44:57.983Z,18.98
2024-03-02T03:47:25.820Z,18.97
2024-03-02T03:49:55.018Z,18.98
2024-03-02T03:52:23.193Z,18.97
2024-03-02T03:54:51.131Z,18.98
2024-03-02T03:57:19.031Z,18.97
2024-03-02T03:59:47.455Z,18.97
2024-03-02T04:02:15.353Z,18.96
2024-03-02T04:04:43.257Z,18.96
2024-03-02T04:07:12.489Z,18.96
2024-03-02T04:09:40.353Z,18.95
2024-03-02T04:12:08.485Z,18.94
2024-03-02T04:14:36.311Z,18.94
2024-03-02T04:17:04.188Z,18.94
2024-03-02T04:19:32.060Z,18.95
2024-03-02T04:22:03.197Z,18.95
2024-03-02T04:24:37.955Z,18.93
2024-03-02T04:27:05.790Z,18.93
2024-03-02T04:29:33.603Z,18.93
2024-03-02T04:32:01.445Z,18.91
2024-03-02T04:34:29.265Z,18.90
2024-03-02T04:36:57.115Z,18.91
2024-03-02T04:39:25.990Z,18.90
2024-03-02T04:41:55.221Z,18.90
2024-03-02T04:44:23.067Z,18.89
2024-03-02T04:46:50.983Z,18.89
2024-03-02T04:49:18.887Z,18.88
2024-03-02T04:51:46.968Z,18.88
2024-03-02T04:54:15.719Z,18.88
2024-03-02T04:56:50.711Z,18.87
2024-03-02T04:59:20.261Z,18.88
2024-03-02T05:01:48.314Z,18.86
2024-03-02T05:04:16.365Z,18.85
2024-03-02T05:06:44.424Z,18.85
2024-03-02T05:09:12.382Z,18.84
2024-03-02T05:12:10.995Z,18.83
2024-03-02T05:14:40.586Z,18.81
2024-03-02T05:17:08.434Z,18.80
2024-03-02T05:19:36.260Z,18.81
2024-03-02T05:22:04.336Z,18.81
2024-03-02T05:24:32.227Z,18.79
2024-03-02T05:27:00.695Z,18.79
2024-03-02T05:29:28.544Z,18.80
2024-03-02T05:31:57.734Z,18.79
2024-03-02T05:34:25.664Z,18.80
2024-03-02T05:36:53.615Z,18.80
2024-03-02T05:39:21.518Z,18.80
2024-03-02T05:41:49.364Z,18.80
2024-03-02T05:44:17.444Z,18.80
2024-03-02T05:46:45.442Z,18.80
2024-03-02T05:49:14.617Z,18.81
2024-03-02T05:51:42.724Z,18.81
2024-03-02T05:54:10.802Z,18.81
2024-03-02T05:56:38.629Z,18.81
2024-03-02T05:59:14.245Z,18.82
2024-03-02T06:01:42.324Z,18.82
2024-03-02T06:04:10.272Z,18.83
2024-03-02T06:06:39.803Z,18.83
2024-03-02T06:09:09.378Z,18.83
2024-03-02T06:11:37.760Z,18.84
2024-03-02T06:14:05.671Z,18.85
2024-03-02T06:16:33.510Z,18.84
2024-03-02T06:19:01.429Z,18.85
2024-03-02T06:21:29.550Z,18.86
2024-03-02T06:23:58.779Z,18.86
2024-03-02T06:26:26.604Z,18.85
2024-03-02T06:28:54.451Z,18.85
2024-03-02T06:31:25.178Z,18.85
2024-03-02T06:33:53.127Z,18.86
2024-03-02T06:36:21.036Z,18.87
2024-03-02T06:38:48.898Z,18.87
2024-03-02T06:41:18.118Z,18.88
2024-03-02T06:43:45.925Z,18.88
2024-03-02T06:46:15.833Z,18.89
2024-03-02T06:48:43.836Z,18.89
2024-03-02T06:51:12.082Z,18.91
2024-03-02T06:53:39.923Z,18.91
2024-03-02T06:56:08.789Z,18.91
2024-03-02T06:58:38.001Z,18.91
2024-03-02T07:01:06.124Z,18.92
2024-03-02T07:03:34.392Z,18.91
2024-03-02T07:06:02.404Z,18.93
2024-03-02T07:08:30.275Z,18.93
2024-03-02T07:10:58.372Z,18.95
2024-03-02T07:13:26.650Z,18.95
2024-03-02T07:16:13.407Z,18.96
2024-03-02T07:18:42.917Z,18.97
2024-03-02T07:21:10.868Z,18.97
2024-03-02T07:23:38.723Z,18.98
2024-03-02T07:28:38.123Z,19.01
2024-03-02T07:31:07.366Z,19.02
2024-03-02T07:33:35.304Z,19.03
2024-03-02T07:36:04.940Z,19.04
2024-03-02T07:38:34.470Z,19.04
2024-03-02T07:41:02.452Z,19.06
2024-03-02T07:43:30.310Z,19.06
2024-03-02T07:45:58.244Z,19.07
2024-03-02T07:48:28.243Z,19.07
2024-03-02T07:50:56.113Z,19.09
2024-03-02T07:53:23.958Z,19.10
2024-03-02T07:55:51.777Z,19.12
2024-03-02T07:58:20.649Z,19.12
2024-03-02T08:00:50.606Z,19.13
2024-03-02T08:03:19.503Z,19.14
2024-03-02T08:05:48.709Z,19.15
2024-03-02T08:08:16.605Z,19.17
2024-03-02T08:10:44.412Z,19.18
2024-03-02T08:13:12.289Z,19.20
2024-03-02T08:15:42.816Z,19.22
2024-03-02T08:18:10.723Z,19.23
2024-03-02T08:20:38.649Z,19.26
2024-03-02T08:23:07.889Z,19.28
2024-03-02T08:25:35.721Z,19.29
2024-03-02T08:28:03.671Z,19.30
2024-03-02T08:30:31.606Z,19.33
2024-03-02T08:32:59.491Z,19.35
2024-03-02T08:35:27.346Z,19.37
2024-03-02T08:37:55.197Z,19.40
2024-03-02T08:40:24.375Z,19.42
2024-03-02T08:42:52.776Z,19.44
2024-03-02T08:45:21.630Z,19.46
2024-03-02T08:47:49.525Z,19.47
2024-03-02T08:50:17.510Z,19.50
2024-03-02T08:52:45.315Z,19.52
2024-03-02T08:55:13.481Z,19.53
2024-03-02T08:57:43.330Z,19.55
2024-03-02T09:00:12.093Z,19.58
2024-03-02T09:02:39.917Z,19.60
2024-03-02T09:05:09.792Z,19.62
2024-03-02T09:07:39.051Z,19.66
2024-03-02T09:10:07.988Z,19.67
2024-03-02T09:12:35.925Z,19.71
2024-03-02T09:15:05.842Z,19.73
2024-03-02T09:17:33.820Z,19.75
2024-03-02T09:20:01.718Z,19.77
2024-03-02T09:22:29.535Z,19.80
2024-03-02T09:24:57.392Z,19.82
2024-03-02T09:27:25.251Z,19.83
2024-03-02T09:29:53.162Z,19.84
2024-03-02T09:32:22.390Z,19.86
2024-03-02T09:34:50.471Z,19.88
2024-03-02T09:37:18.308Z,19.91
2024-03-02T09:39:46.489Z,19.92
2024-03-02T09:42:14.728Z,19.94
2024-03-02T09:44:42.539Z,19.96
2024-03-02T09:47:10.374Z,19.98
2024-03-02T09:49:40.406Z,20.00
2024-03-02T09:52:09.936Z,20.00
2024-03-02T09:54:37.825Z,20.03
2024-03-02T09:57:06.240Z,20.04
2024-03-02T09:59:34.079Z,20.06
2024-03-02T10:02:02.915Z,20.08
2024-03-02T10:04:32.113Z,20.10
2024-03-02T10:07:16.534Z,20.13
2024-03-02T10:09:44.751Z,20.13
2024-03-02T10:12:13.576Z,20.16
2024-03-02T10:14:41.439Z,20.17
2024-03-02T10:17:10.645Z,20.18
2024-03-02T10:19:38.614Z,20.21
2024-03-02T10:22:07.120Z,20.22
2024-03-02T10:24:40.624Z,20.24
2024-03-02T10:27:11.926Z,20.26
2024-03-02T10:29:41.413Z,20.26
2024-03-02T10:32:12.096Z,20.29
2024-03-02T10:34:40.783Z,20.30
2024-03-02T10:37:09.368Z,20.32
2024-03-02T10:39:37.822Z,20.34
2024-03-02T10:42:07.945Z,20.35
2024-03-02T10:44:36.245Z,20.36
2024-03-02T10:47:04.799Z,20.37
2024-03-02T10:49:33.112Z,20.38
2024-03-02T10:52:02.038Z,20.42
2024-03-02T10:54:31.087Z,20.41
2024-03-02T10:57:01.274Z,20.44
2024-03-02T10:59:34.017Z,20.45
2024-03-02T11:02:05.676Z,20.47
2024-03-02T11:04:35.985Z,20.48
2024-03-02T11:07:06.176Z,20.50
2024-03-02T11:09:36.173Z,20.51
2024-03-02T11:12:06.031Z,20.51
2024-03-02T11:14:35.319Z,20.53
2024-03-02T11:17:04.575Z,20.57
2024-03-02T11:19:32.549Z,20.58
2024-03-02T11:22:00.537Z,20.59
2024-03-02T11:24:37.388Z,20.61
2024-03-02T11:27:12.500Z,20.63
2024-03-02T11:29:48.642Z,20.65
2024-03-02T11:32:16.975Z,20.65
2024-03-02T11:34:47.660Z,20.67
2024-03-02T11:37:16.019Z,20.69
2024-03-02T11:39:44.366Z,20.70
2024-03-02T11:42:12.531Z,20.71
2024-03-02T11:44:40.376Z,20.74
2024-03-02T11:47:11.692Z,20.77
2024-03-02T11:49:40.844Z,20.78
2024-03-02T11:52:09.314Z,20.78
2024-03-02T11:54:37.424Z,20.80
2024-03-02T11:57:05.698Z,20.81
2024-03-02T11:59:33.635Z,20.81
2024-03-02T12:02:01.565Z,20.82
2024-03-02T12:04:30.819Z,20.83
2024-03-02T12:07:00.967Z,20.84
2024-03-02T12:09:29.037Z,20.85
2024-03-02T12:12:06.886Z,20.88
2024-03-02T12:14:34.787Z,20.89
2024-03-02T12:17:02.629Z,20.91
2024-03-02T12:19:31.988Z,20.92
2024-03-02T12:21:59.998Z,20.95
2024-03-02T12:24:29.206Z,20.95
2024-03-02T12:26:57.265Z,20.96
2024-03-02T12:29:25.289Z,20.96
2024-03-02T12:31:53.550Z,20.97
2024-03-02T12:34:21.684Z,20.98
2024-03-02T12:36:54.123Z,20.98
2024-03-02T12:39:24.127Z,20.98
2024-03-02T12:41:52.613Z,20.99
2024-03-02T12:44:20.467Z,21.00
2024-03-02T12:46:48.496Z,21.01
2024-03-02T12:49:17.757Z,21.02
2024-03-02T12:51:48.178Z,21.01
2024-03-02T12:54:18.615Z,21.03
2024-03-02T12:56:47.448Z,21.05
2024-03-02T12:59:20.289Z,21.07
2024-03-02T13:01:53.107Z,21.09
2024-03-02T13:04:24.786Z,21.10
2024-03-02T13:06:53.114Z,21.12
2024-03-02T13:09:22.534Z,21.11
2024-03-02T13:11:50.693Z,21.11
2024-03-02T13:14:18.512Z,21.14
2024-03-02T13:16:48.508Z,21.16
2024-03-02T13:19:16.614Z,21.20
2024-03-02T13:21:44.536Z,21.23
2024-03-02T13:24:12.379Z,21.26
2024-03-02T13:26:41.683Z,21.30
2024-03-02T13:29:10.173Z,21.33
2024-03-02T13:31:38.052Z,21.34
2024-03-02T13:34:06.054Z,21.36
2024-03-02T13:36:34.089Z,21.39
2024-03-02T13:39:02.112Z,21.41
2024-03-02T13:41:29.976Z,21.43
2024-03-02T13:44:02.150Z,21.46
2024-03-02T13:46:30.062Z,21.47
2024-03-02T13:48:57.917Z,21.51
2024-03-02T13:51:26.433Z,21.54
2024-03-02T13:53:54.414Z,21.55
2024-03-02T13:56:23.477Z,21.57
2024-03-02T13:58:51.316Z,21.59
2024-03-02T14:01:20.830Z,21.61
2024-03-02T14:03:48.780Z,21.62
2024-03-02T14:06:16.636Z,21.66
2024-03-02T14:08:45.976Z,21.67
2024-03-02T14:11:16.114Z,21.72
2024-03-02T14:13:45.320Z,21.75
2024-03-02T14:16:13.221Z,21.82
2024-03-02T14:18:42.499Z,21.90
2024-03-02T14:21:10.346Z,21.99
2024-03-02T14:23:38.166Z,22.09
2024-03-02T14:26:06.107Z,22.18
2024-03-02T14:28:48.056Z,22.26
2024-03-02T14:31:19.044Z,22.33
2024-03-02T14:33:48.313Z,22.40
2024-03-02T14:36:16.174Z,22.43
2024-03-02T14:38:44.081Z,22.50
2024-03-02T14:41:12.012Z,22.56
2024-03-02T14:43:39.871Z,22.61
2024-03-02T14:46:09.415Z,22.65
2024-03-02T14:48:37.392Z,22.70
2024-03-02T14:51:06.815Z,22.73
2024-03-02T14:53:34.672Z,22.73
2024-03-02T14:56:02.521Z,22.73
2024-03-02T14:58:30.363Z,22.79
2024-03-02T15:00:58.335Z,22.85
2024-03-02T15:03:26.228Z,22.86
2024-03-02T15:05:54.887Z,22.90
2024-03-02T15:08:24.151Z,22.93
2024-03-02T15:10:52.004Z,22.95
2024-03-02T15:13:20.056Z,22.97
2024-03-02T15:15:48.253Z,23.00
2024-03-02T15:18:16.234Z,23.02
2024-03-02T15:20:44.282Z,23.04
2024-03-02T15:23:12.285Z,23.06
2024-03-02T15:25:41.714Z,23.08
2024-03-02T15:28:09.635Z,23.12
